sensor_id;sensor_type;location;lat;lon;timestamp;pressure;altitude;pressure_sealevel;temperature;humidity
81905;BME280;71370;-33.792;151.032;2023-07-29T00:00:22;101724.70;;;17.47;56.45
81905;BME280;71370;-33.792;151.032;2023-07-29T00:01:29;101725.60;;;17.54;56.50
81905;BME280;71370;-33.792;151.032;2023-07-29T00:02:36;101720.83;;;17.59;56.38
81905;BME280;71370;-33.792;151.032;2023-07-29T00:03:43;101717.50;;;17.64;56.12
81905;BME280;71370;-33.792;151.032;2023-07-29T00:04:50;101715.60;;;17.68;56.50
81905;BME280;71370;-33.792;151.032;2023-07-29T00:05:56;101713.67;;;17.74;56.36
81905;BME280;71370;-33.792;151.032;2023-07-29T00:07:04;101711.04;;;17.79;56.34
81905;BME280;71370;-33.792;151.032;2023-07-29T00:08:11;101711.97;;;17.85;56.10
81905;BME280;71370;-33.792;151.032;2023-07-29T00:09:18;101711.09;;;17.91;56.07
81905;BME280;71370;-33.792;151.032;2023-07-29T00:10:26;101708.13;;;17.95;55.62
81905;BME280;71370;-33.792;151.032;2023-07-29T00:11:33;101699.95;;;18.01;55.62
81905;BME280;71370;-33.792;151.032;2023-07-29T00:12:41;101705.80;;;18.08;55.52
81905;BME280;71370;-33.792;151.032;2023-07-29T00:13:48;101704.17;;;18.15;55.63
81905;BME280;71370;-33.792;151.032;2023-07-29T00:14:56;101700.95;;;18.21;55.27
81905;BME280;71370;-33.792;151.032;2023-07-29T00:16:03;101702.88;;;18.28;54.82
81905;BME280;71370;-33.792;151.032;2023-07-29T00:17:10;101699.86;;;18.34;54.30
81905;BME280;71370;-33.792;151.032;2023-07-29T00:18:17;101698.27;;;18.40;53.98
81905;BME280;71370;-33.792;151.032;2023-07-29T00:19:24;101693.64;;;18.45;53.95
81905;BME280;71370;-33.792;151.032;2023-07-29T00:20:31;101691.67;;;18.51;54.10
81905;BME280;71370;-33.792;151.032;2023-07-29T00:21:38;101690.07;;;18.57;53.88
81905;BME280;71370;-33.792;151.032;2023-07-29T00:22:45;101689.52;;;18.63;53.88
81905;BME280;71370;-33.792;151.032;2023-07-29T00:23:52;101686.11;;;18.70;53.75
81905;BME280;71370;-33.792;151.032;2023-07-29T00:24:59;101685.73;;;18.76;53.86
81905;BME280;71370;-33.792;151.032;2023-07-29T00:26:06;101686.47;;;18.81;53.59
81905;BME280;71370;-33.792;151.032;2023-07-29T00:27:13;101685.41;;;18.87;53.68
81905;BME280;71370;-33.792;151.032;2023-07-29T00:28:19;101684.30;;;18.93;53.09
81905;BME280;71370;-33.792;151.032;2023-07-29T00:29:26;101681.08;;;18.99;52.72
81905;BME280;71370;-33.792;151.032;2023-07-29T00:30:33;101681.57;;;19.05;52.65
81905;BME280;71370;-33.792;151.032;2023-07-29T00:31:40;101682.59;;;19.12;52.96
81905;BME280;71370;-33.792;151.032;2023-07-29T00:32:47;101682.20;;;19.18;53.12
81905;BME280;71370;-33.792;151.032;2023-07-29T00:33:54;101678.45;;;19.24;52.84
81905;BME280;71370;-33.792;151.032;2023-07-29T00:35:01;101679.84;;;19.30;52.73
81905;BME280;71370;-33.792;151.032;2023-07-29T00:36:08;101679.83;;;19.36;52.50
81905;BME280;71370;-33.792;151.032;2023-07-29T00:37:15;101676.05;;;19.41;52.29
81905;BME280;71370;-33.792;151.032;2023-07-29T00:38:22;101673.88;;;19.47;52.31
81905;BME280;71370;-33.792;151.032;2023-07-29T00:39:29;101667.80;;;19.53;51.05
81905;BME280;71370;-33.792;151.032;2023-07-29T00:40:36;101662.95;;;19.58;48.39
81905;BME280;71370;-33.792;151.032;2023-07-29T00:41:43;101663.11;;;19.64;46.80
81905;BME280;71370;-33.792;151.032;2023-07-29T00:42:50;101656.86;;;19.69;47.35
81905;BME280;71370;-33.792;151.032;2023-07-29T00:43:57;101659.03;;;19.74;46.40
81905;BME280;71370;-33.792;151.032;2023-07-29T00:45:04;101659.55;;;19.79;46.48
81905;BME280;71370;-33.792;151.032;2023-07-29T00:46:13;101657.73;;;19.85;46.94
81905;BME280;71370;-33.792;151.032;2023-07-29T00:47:22;101657.88;;;19.91;46.89
81905;BME280;71370;-33.792;151.032;2023-07-29T00:48:31;101656.17;;;19.97;46.62
81905;BME280;71370;-33.792;151.032;2023-07-29T00:49:38;101651.56;;;20.01;46.14
81905;BME280;71370;-33.792;151.032;2023-07-29T00:50:45;101647.03;;;20.08;45.83
81905;BME280;71370;-33.792;151.032;2023-07-29T00:51:52;101642.73;;;20.13;44.98
81905;BME280;71370;-33.792;151.032;2023-07-29T00:52:59;101646.30;;;20.17;45.15
81905;BME280;71370;-33.792;151.032;2023-07-29T00:54:07;101643.84;;;20.21;45.29
81905;BME280;71370;-33.792;151.032;2023-07-29T00:55:14;101648.16;;;20.25;45.71
81905;BME280;71370;-33.792;151.032;2023-07-29T00:56:21;101646.88;;;20.30;46.32
81905;BME280;71370;-33.792;151.032;2023-07-29T00:57:29;101642.55;;;20.36;46.05
81905;BME280;71370;-33.792;151.032;2023-07-29T00:58:36;101640.16;;;20.42;45.88
81905;BME280;71370;-33.792;151.032;2023-07-29T00:59:43;101637.74;;;20.48;45.16
81905;BME280;71370;-33.792;151.032;2023-07-29T01:00:51;101633.92;;;20.55;44.81
81905;BME280;71370;-33.792;151.032;2023-07-29T01:01:58;101636.58;;;20.60;44.13
81905;BME280;71370;-33.792;151.032;2023-07-29T01:03:06;101635.55;;;20.64;44.33
81905;BME280;71370;-33.792;151.032;2023-07-29T01:04:13;101630.00;;;20.68;44.22
81905;BME280;71370;-33.792;151.032;2023-07-29T01:05:20;101626.86;;;20.71;44.09
81905;BME280;71370;-33.792;151.032;2023-07-29T01:09:05;101624.03;;;20.70;43.87
81905;BME280;71370;-33.792;151.032;2023-07-29T01:10:38;101623.59;;;20.72;43.81
81905;BME280;71370;-33.792;151.032;2023-07-29T01:16:57;101616.55;;;20.91;43.61
81905;BME280;71370;-33.792;151.032;2023-07-29T01:18:21;101610.45;;;21.00;43.67
81905;BME280;71370;-33.792;151.032;2023-07-29T01:20:59;101602.73;;;21.21;43.73
81905;BME280;71370;-33.792;151.032;2023-07-29T01:22:07;101595.21;;;21.29;43.59
81905;BME280;71370;-33.792;151.032;2023-07-29T01:23:16;101593.42;;;21.37;42.79
81905;BME280;71370;-33.792;151.032;2023-07-29T01:24:23;101589.73;;;21.44;42.53
81905;BME280;71370;-33.792;151.032;2023-07-29T01:25:30;101586.27;;;21.49;42.64
81905;BME280;71370;-33.792;151.032;2023-07-29T01:26:37;101585.52;;;21.54;41.65
81905;BME280;71370;-33.792;151.032;2023-07-29T01:27:47;101582.38;;;21.52;41.75
81905;BME280;71370;-33.792;151.032;2023-07-29T01:28:53;101576.13;;;21.48;41.96
81905;BME280;71370;-33.792;151.032;2023-07-29T01:30:02;101577.42;;;21.43;42.01
81905;BME280;71370;-33.792;151.032;2023-07-29T01:33:39;101571.08;;;21.28;41.71
81905;BME280;71370;-33.792;151.032;2023-07-29T01:34:56;101572.65;;;21.25;41.77
81905;BME280;71370;-33.792;151.032;2023-07-29T01:36:14;101566.55;;;21.22;41.89
81905;BME280;71370;-33.792;151.032;2023-07-29T01:37:26;101569.27;;;21.21;41.38
81905;BME280;71370;-33.792;151.032;2023-07-29T01:38:36;101563.64;;;21.23;40.77
81905;BME280;71370;-33.792;151.032;2023-07-29T01:39:45;101558.87;;;21.22;40.07
81905;BME280;71370;-33.792;151.032;2023-07-29T01:40:53;101557.19;;;21.19;40.33
81905;BME280;71370;-33.792;151.032;2023-07-29T01:42:00;101553.72;;;21.17;39.32
81905;BME280;71370;-33.792;151.032;2023-07-29T01:43:08;101549.23;;;21.13;40.14
81905;BME280;71370;-33.792;151.032;2023-07-29T01:44:15;101551.30;;;21.11;40.00
81905;BME280;71370;-33.792;151.032;2023-07-29T01:45:24;101552.97;;;21.10;40.31
81905;BME280;71370;-33.792;151.032;2023-07-29T01:46:34;101549.09;;;21.08;40.44
81905;BME280;71370;-33.792;151.032;2023-07-29T01:47:41;101543.53;;;21.09;40.28
81905;BME280;71370;-33.792;151.032;2023-07-29T01:48:48;101542.70;;;21.07;40.65
81905;BME280;71370;-33.792;151.032;2023-07-29T01:49:55;101543.64;;;21.06;40.78
81905;BME280;71370;-33.792;151.032;2023-07-29T01:51:03;101538.27;;;21.06;41.10
81905;BME280;71370;-33.792;151.032;2023-07-29T01:52:10;101537.02;;;21.06;40.91
81905;BME280;71370;-33.792;151.032;2023-07-29T01:53:17;101535.97;;;21.06;40.97
81905;BME280;71370;-33.792;151.032;2023-07-29T01:54:23;101535.34;;;21.08;40.84
81905;BME280;71370;-33.792;151.032;2023-07-29T01:55:30;101529.73;;;21.09;40.82
81905;BME280;71370;-33.792;151.032;2023-07-29T01:56:37;101527.91;;;21.10;40.62
81905;BME280;71370;-33.792;151.032;2023-07-29T01:57:44;101529.89;;;21.10;40.00
81905;BME280;71370;-33.792;151.032;2023-07-29T01:58:51;101525.27;;;21.09;40.07
81905;BME280;71370;-33.792;151.032;2023-07-29T01:59:58;101520.12;;;21.08;40.02
81905;BME280;71370;-33.792;151.032;2023-07-29T02:01:05;101517.42;;;21.09;40.22
81905;BME280;71370;-33.792;151.032;2023-07-29T02:02:12;101515.29;;;21.12;40.50
81905;BME280;71370;-33.792;151.032;2023-07-29T02:03:19;101514.10;;;21.15;41.17
81905;BME280;71370;-33.792;151.032;2023-07-29T02:04:26;101515.41;;;21.17;41.13
81905;BME280;71370;-33.792;151.032;2023-07-29T02:05:33;101513.33;;;21.16;40.27
81905;BME280;71370;-33.792;151.032;2023-07-29T02:06:40;101510.70;;;21.15;40.66
81905;BME280;71370;-33.792;151.032;2023-07-29T02:07:47;101508.79;;;21.13;40.19
81905;BME280;71370;-33.792;151.032;2023-07-29T02:08:54;101504.76;;;21.12;40.50
81905;BME280;71370;-33.792;151.032;2023-07-29T02:10:01;101503.27;;;21.13;40.73
81905;BME280;71370;-33.792;151.032;2023-07-29T02:11:08;101502.88;;;21.14;40.30
81905;BME280;71370;-33.792;151.032;2023-07-29T02:12:15;101499.80;;;21.15;40.19
81905;BME280;71370;-33.792;151.032;2023-07-29T02:13:22;101497.27;;;21.15;39.94
81905;BME280;71370;-33.792;151.032;2023-07-29T02:14:29;101495.52;;;21.14;39.85
81905;BME280;71370;-33.792;151.032;2023-07-29T02:15:36;101497.29;;;21.15;40.16
81905;BME280;71370;-33.792;151.032;2023-07-29T02:16:43;101495.90;;;21.17;39.79
81905;BME280;71370;-33.792;151.032;2023-07-29T02:17:50;101490.80;;;21.19;40.12
81905;BME280;71370;-33.792;151.032;2023-07-29T02:18:58;101488.95;;;21.21;40.18
81905;BME280;71370;-33.792;151.032;2023-07-29T02:20:05;101483.05;;;21.21;40.18
81905;BME280;71370;-33.792;151.032;2023-07-29T02:21:12;101481.10;;;21.21;40.42
81905;BME280;71370;-33.792;151.032;2023-07-29T02:22:19;101474.87;;;21.20;40.32
81905;BME280;71370;-33.792;151.032;2023-07-29T02:23:26;101477.77;;;21.23;40.09
81905;BME280;71370;-33.792;151.032;2023-07-29T02:24:33;101475.77;;;21.32;40.07
81905;BME280;71370;-33.792;151.032;2023-07-29T02:25:40;101472.09;;;21.41;40.18
81905;BME280;71370;-33.792;151.032;2023-07-29T02:26:46;101470.86;;;21.46;39.79
81905;BME280;71370;-33.792;151.032;2023-07-29T02:27:54;101467.11;;;21.45;39.20
81905;BME280;71370;-33.792;151.032;2023-07-29T02:29:00;101461.80;;;21.44;39.24
81905;BME280;71370;-33.792;151.032;2023-07-29T02:30:08;101467.00;;;21.43;39.43
81905;BME280;71370;-33.792;151.032;2023-07-29T02:31:20;101466.13;;;21.43;39.10
81905;BME280;71370;-33.792;151.032;2023-07-29T02:32:28;101459.35;;;21.42;39.44
81905;BME280;71370;-33.792;151.032;2023-07-29T02:33:35;101459.36;;;21.42;39.40
81905;BME280;71370;-33.792;151.032;2023-07-29T02:34:42;101460.23;;;21.43;39.53
81905;BME280;71370;-33.792;151.032;2023-07-29T02:35:49;101457.70;;;21.43;39.76
81905;BME280;71370;-33.792;151.032;2023-07-29T02:36:56;101452.34;;;21.43;39.86
81905;BME280;71370;-33.792;151.032;2023-07-29T02:38:03;101450.17;;;21.44;39.38
81905;BME280;71370;-33.792;151.032;2023-07-29T02:39:10;101448.69;;;21.45;39.24
81905;BME280;71370;-33.792;151.032;2023-07-29T02:40:17;101444.47;;;21.47;38.82
81905;BME280;71370;-33.792;151.032;2023-07-29T02:41:24;101440.70;;;21.51;38.71
81905;BME280;71370;-33.792;151.032;2023-07-29T02:42:31;101433.28;;;21.53;38.66
81905;BME280;71370;-33.792;151.032;2023-07-29T02:43:38;101429.35;;;21.53;38.52
81905;BME280;71370;-33.792;151.032;2023-07-29T02:44:45;101426.34;;;21.52;38.94
81905;BME280;71370;-33.792;151.032;2023-07-29T02:45:52;101424.74;;;21.52;39.23
81905;BME280;71370;-33.792;151.032;2023-07-29T02:46:59;101424.22;;;21.52;39.47
81905;BME280;71370;-33.792;151.032;2023-07-29T02:48:06;101424.44;;;21.51;39.20
81905;BME280;71370;-33.792;151.032;2023-07-29T02:49:13;101421.08;;;21.50;38.89
81905;BME280;71370;-33.792;151.032;2023-07-29T02:50:20;101423.09;;;21.49;38.92
81905;BME280;71370;-33.792;151.032;2023-07-29T02:51:27;101419.70;;;21.49;38.81
81905;BME280;71370;-33.792;151.032;2023-07-29T02:52:34;101417.05;;;21.48;38.86
81905;BME280;71370;-33.792;151.032;2023-07-29T02:53:40;101412.98;;;21.48;38.82
81905;BME280;71370;-33.792;151.032;2023-07-29T02:54:47;101414.12;;;21.50;38.02
81905;BME280;71370;-33.792;151.032;2023-07-29T02:55:54;101414.02;;;21.56;38.76
81905;BME280;71370;-33.792;151.032;2023-07-29T02:57:01;101410.88;;;21.61;38.76
81905;BME280;71370;-33.792;151.032;2023-07-29T02:58:08;101409.55;;;21.70;38.76
81905;BME280;71370;-33.792;151.032;2023-07-29T02:59:15;101405.57;;;21.74;38.57
81905;BME280;71370;-33.792;151.032;2023-07-29T03:00:22;101399.48;;;21.75;38.23
81905;BME280;71370;-33.792;151.032;2023-07-29T03:01:29;101398.23;;;21.74;38.17
81905;BME280;71370;-33.792;151.032;2023-07-29T03:02:36;101394.33;;;21.74;37.94
81905;BME280;71370;-33.792;151.032;2023-07-29T03:03:43;101394.04;;;21.72;38.27
81905;BME280;71370;-33.792;151.032;2023-07-29T03:04:50;101392.14;;;21.71;38.50
81905;BME280;71370;-33.792;151.032;2023-07-29T03:06:04;101393.88;;;21.68;38.08
81905;BME280;71370;-33.792;151.032;2023-07-29T03:07:11;101388.88;;;21.65;38.43
81905;BME280;71370;-33.792;151.032;2023-07-29T03:08:18;101388.77;;;21.63;38.56
81905;BME280;71370;-33.792;151.032;2023-07-29T03:09:25;101388.33;;;21.61;38.59
81905;BME280;71370;-33.792;151.032;2023-07-29T03:10:34;101385.58;;;21.59;38.88
81905;BME280;71370;-33.792;151.032;2023-07-29T03:11:41;101385.52;;;21.56;38.80
81905;BME280;71370;-33.792;151.032;2023-07-29T03:12:48;101385.30;;;21.53;39.19
81905;BME280;71370;-33.792;151.032;2023-07-29T03:13:55;101387.23;;;21.50;39.25
81905;BME280;71370;-33.792;151.032;2023-07-29T03:15:03;101391.34;;;21.47;39.14
81905;BME280;71370;-33.792;151.032;2023-07-29T03:16:15;101389.77;;;21.46;39.08
81905;BME280;71370;-33.792;151.032;2023-07-29T03:17:22;101385.71;;;21.52;38.92
81905;BME280;71370;-33.792;151.032;2023-07-29T03:18:29;101389.54;;;21.62;38.89
81905;BME280;71370;-33.792;151.032;2023-07-29T03:19:36;101386.67;;;21.73;39.14
81905;BME280;71370;-33.792;151.032;2023-07-29T03:20:43;101389.50;;;21.84;38.94
81905;BME280;71370;-33.792;151.032;2023-07-29T03:21:50;101388.22;;;21.96;38.81
81905;BME280;71370;-33.792;151.032;2023-07-29T03:22:57;101381.05;;;22.06;38.74
81905;BME280;71370;-33.792;151.032;2023-07-29T03:24:04;101381.52;;;22.18;38.85
81905;BME280;71370;-33.792;151.032;2023-07-29T03:25:11;101380.02;;;22.30;38.50
81905;BME280;71370;-33.792;151.032;2023-07-29T03:26:18;101376.14;;;22.43;38.04
81905;BME280;71370;-33.792;151.032;2023-07-29T03:27:25;101373.42;;;22.53;37.78
81905;BME280;71370;-33.792;151.032;2023-07-29T03:28:33;101377.13;;;22.65;37.33
81905;BME280;71370;-33.792;151.032;2023-07-29T03:29:40;101377.00;;;22.77;37.35
81905;BME280;71370;-33.792;151.032;2023-07-29T03:30:46;101373.88;;;22.84;37.15
81905;BME280;71370;-33.792;151.032;2023-07-29T03:31:53;101377.11;;;22.91;36.91
81905;BME280;71370;-33.792;151.032;2023-07-29T03:33:01;101374.36;;;22.96;36.88
81905;BME280;71370;-33.792;151.032;2023-07-29T03:34:08;101380.04;;;23.04;36.07
81905;BME280;71370;-33.792;151.032;2023-07-29T03:35:17;101380.39;;;23.07;36.29
81905;BME280;71370;-33.792;151.032;2023-07-29T03:36:24;101380.20;;;23.14;35.94
81905;BME280;71370;-33.792;151.032;2023-07-29T03:37:31;101376.80;;;23.20;36.37
81905;BME280;71370;-33.792;151.032;2023-07-29T03:38:38;101369.98;;;23.27;36.30
81905;BME280;71370;-33.792;151.032;2023-07-29T03:39:46;101372.02;;;23.31;36.53
81905;BME280;71370;-33.792;151.032;2023-07-29T03:40:53;101370.38;;;23.32;36.12
81905;BME280;71370;-33.792;151.032;2023-07-29T03:42:00;101371.36;;;23.30;36.22
81905;BME280;71370;-33.792;151.032;2023-07-29T03:43:08;101367.84;;;23.32;36.37
81905;BME280;71370;-33.792;151.032;2023-07-29T03:44:15;101366.12;;;23.28;36.03
81905;BME280;71370;-33.792;151.032;2023-07-29T03:45:22;101367.80;;;23.24;35.40
81905;BME280;71370;-33.792;151.032;2023-07-29T03:46:28;101365.98;;;23.18;35.30
81905;BME280;71370;-33.792;151.032;2023-07-29T03:47:35;101364.17;;;23.15;35.20
81905;BME280;71370;-33.792;151.032;2023-07-29T03:48:42;101363.95;;;23.16;35.51
81905;BME280;71370;-33.792;151.032;2023-07-29T03:49:50;101365.64;;;23.21;35.80
81905;BME280;71370;-33.792;151.032;2023-07-29T03:50:57;101364.09;;;23.26;35.46
81905;BME280;71370;-33.792;151.032;2023-07-29T03:52:04;101367.98;;;23.30;34.88
81905;BME280;71370;-33.792;151.032;2023-07-29T03:53:11;101363.73;;;23.32;35.00
81905;BME280;71370;-33.792;151.032;2023-07-29T03:54:18;101363.43;;;23.34;35.20
81905;BME280;71370;-33.792;151.032;2023-07-29T03:55:25;101365.18;;;23.38;35.59
81905;BME280;71370;-33.792;151.032;2023-07-29T03:56:32;101363.92;;;23.41;35.63
81905;BME280;71370;-33.792;151.032;2023-07-29T03:57:41;101361.20;;;23.45;35.61
81905;BME280;71370;-33.792;151.032;2023-07-29T03:58:48;101360.91;;;23.50;35.21
81905;BME280;71370;-33.792;151.032;2023-07-29T03:59:55;101358.53;;;23.54;34.96
81905;BME280;71370;-33.792;151.032;2023-07-29T04:01:02;101360.12;;;23.58;35.02
81905;BME280;71370;-33.792;151.032;2023-07-29T04:02:10;101357.50;;;23.62;35.34
81905;BME280;71370;-33.792;151.032;2023-07-29T04:03:17;101359.39;;;23.67;35.49
81905;BME280;71370;-33.792;151.032;2023-07-29T04:04:24;101359.08;;;23.73;35.53
81905;BME280;71370;-33.792;151.032;2023-07-29T04:05:31;101358.75;;;23.78;35.10
81905;BME280;71370;-33.792;151.032;2023-07-29T04:06:38;101357.33;;;23.75;34.67
81905;BME280;71370;-33.792;151.032;2023-07-29T04:07:45;101359.85;;;23.68;35.01
81905;BME280;71370;-33.792;151.032;2023-07-29T04:08:52;101352.45;;;23.63;35.22
81905;BME280;71370;-33.792;151.032;2023-07-29T04:09:59;101353.17;;;23.63;34.95
81905;BME280;71370;-33.792;151.032;2023-07-29T04:11:07;101348.38;;;23.62;34.92
81905;BME280;71370;-33.792;151.032;2023-07-29T04:12:14;101351.80;;;23.59;34.77
81905;BME280;71370;-33.792;151.032;2023-07-29T04:13:20;101349.58;;;23.54;34.76
81905;BME280;71370;-33.792;151.032;2023-07-29T04:14:27;101352.83;;;23.47;35.36
81905;BME280;71370;-33.792;151.032;2023-07-29T04:15:34;101351.66;;;23.43;35.44
81905;BME280;71370;-33.792;151.032;2023-07-29T04:16:42;101351.59;;;23.41;35.33
81905;BME280;71370;-33.792;151.032;2023-07-29T04:17:49;101357.23;;;23.39;35.47
81905;BME280;71370;-33.792;151.032;2023-07-29T04:18:56;101357.11;;;23.35;35.22
81905;BME280;71370;-33.792;151.032;2023-07-29T04:20:03;101358.58;;;23.28;34.98
81905;BME280;71370;-33.792;151.032;2023-07-29T04:21:10;101356.00;;;23.23;35.46
81905;BME280;71370;-33.792;151.032;2023-07-29T04:22:18;101358.45;;;23.18;35.86
81905;BME280;71370;-33.792;151.032;2023-07-29T04:23:25;101358.50;;;23.13;35.85
81905;BME280;71370;-33.792;151.032;2023-07-29T04:24:32;101354.89;;;23.07;35.76
81905;BME280;71370;-33.792;151.032;2023-07-29T04:25:39;101354.79;;;23.02;35.62
81905;BME280;71370;-33.792;151.032;2023-07-29T04:26:46;101352.77;;;22.97;35.89
81905;BME280;71370;-33.792;151.032;2023-07-29T04:27:53;101359.73;;;22.91;35.93
81905;BME280;71370;-33.792;151.032;2023-07-29T04:29:00;101359.83;;;22.86;35.98
81905;BME280;71370;-33.792;151.032;2023-07-29T04:30:07;101358.36;;;22.80;36.10
81905;BME280;71370;-33.792;151.032;2023-07-29T04:31:14;101359.92;;;22.74;35.92
81905;BME280;71370;-33.792;151.032;2023-07-29T04:32:21;101358.66;;;22.68;35.77
81905;BME280;71370;-33.792;151.032;2023-07-29T04:33:29;101362.48;;;22.64;35.92
81905;BME280;71370;-33.792;151.032;2023-07-29T04:34:37;101362.51;;;22.60;35.97
81905;BME280;71370;-33.792;151.032;2023-07-29T04:35:43;101360.27;;;22.54;35.79
81905;BME280;71370;-33.792;151.032;2023-07-29T04:36:50;101354.80;;;22.50;35.89
81905;BME280;71370;-33.792;151.032;2023-07-29T04:37:57;101355.77;;;22.45;36.09
81905;BME280;71370;-33.792;151.032;2023-07-29T04:39:04;101353.83;;;22.41;35.96
81905;BME280;71370;-33.792;151.032;2023-07-29T04:40:11;101357.46;;;22.37;36.22
81905;BME280;71370;-33.792;151.032;2023-07-29T04:41:18;101356.76;;;22.33;36.31
81905;BME280;71370;-33.792;151.032;2023-07-29T04:42:24;101355.84;;;22.30;36.70
81905;BME280;71370;-33.792;151.032;2023-07-29T04:43:32;101359.59;;;22.27;36.45
81905;BME280;71370;-33.792;151.032;2023-07-29T04:44:39;101360.81;;;22.23;36.41
81905;BME280;71370;-33.792;151.032;2023-07-29T04:45:48;101360.81;;;22.20;36.34
81905;BME280;71370;-33.792;151.032;2023-07-29T04:46:55;101358.13;;;22.16;36.30
81905;BME280;71370;-33.792;151.032;2023-07-29T04:48:02;101357.56;;;22.13;36.51
81905;BME280;71370;-33.792;151.032;2023-07-29T04:49:09;101353.05;;;22.11;36.91
81905;BME280;71370;-33.792;151.032;2023-07-29T04:50:16;101355.50;;;22.08;37.04
81905;BME280;71370;-33.792;151.032;2023-07-29T04:51:24;101354.55;;;22.06;37.07
81905;BME280;71370;-33.792;151.032;2023-07-29T04:52:30;101354.05;;;22.05;37.20
81905;BME280;71370;-33.792;151.032;2023-07-29T04:53:37;101354.52;;;22.03;37.45
81905;BME280;71370;-33.792;151.032;2023-07-29T04:54:44;101354.57;;;22.02;37.45
81905;BME280;71370;-33.792;151.032;2023-07-29T04:55:51;101354.94;;;22.02;37.56
81905;BME280;71370;-33.792;151.032;2023-07-29T04:56:58;101352.66;;;22.01;37.52
81905;BME280;71370;-33.792;151.032;2023-07-29T04:58:05;101356.69;;;21.99;37.39
81905;BME280;71370;-33.792;151.032;2023-07-29T04:59:12;101355.65;;;21.98;37.49
81905;BME280;71370;-33.792;151.032;2023-07-29T05:00:19;101359.30;;;21.97;37.10
81905;BME280;71370;-33.792;151.032;2023-07-29T05:01:26;101357.98;;;21.95;37.27
81905;BME280;71370;-33.792;151.032;2023-07-29T05:02:33;101359.66;;;21.93;37.45
81905;BME280;71370;-33.792;151.032;2023-07-29T05:03:40;101360.41;;;21.93;37.61
81905;BME280;71370;-33.792;151.032;2023-07-29T05:04:47;101357.13;;;21.91;37.46
81905;BME280;71370;-33.792;151.032;2023-07-29T05:05:54;101356.86;;;21.89;37.51
81905;BME280;71370;-33.792;151.032;2023-07-29T05:07:02;101357.46;;;21.88;38.04
81905;BME280;71370;-33.792;151.032;2023-07-29T05:08:08;101355.26;;;21.85;38.81
81905;BME280;71370;-33.792;151.032;2023-07-29T05:09:17;101354.61;;;21.84;38.85
81905;BME280;71370;-33.792;151.032;2023-07-29T05:10:24;101353.98;;;21.82;39.04
81905;BME280;71370;-33.792;151.032;2023-07-29T05:11:31;101357.98;;;21.81;38.88
81905;BME280;71370;-33.792;151.032;2023-07-29T05:12:38;101358.30;;;21.78;39.07
81905;BME280;71370;-33.792;151.032;2023-07-29T05:13:44;101360.20;;;21.76;38.83
81905;BME280;71370;-33.792;151.032;2023-07-29T05:14:51;101361.40;;;21.73;38.81
81905;BME280;71370;-33.792;151.032;2023-07-29T05:15:58;101362.60;;;21.71;38.78
81905;BME280;71370;-33.792;151.032;2023-07-29T05:17:05;101363.59;;;21.69;38.65
81905;BME280;71370;-33.792;151.032;2023-07-29T05:18:12;101364.77;;;21.67;38.72
81905;BME280;71370;-33.792;151.032;2023-07-29T05:19:19;101362.79;;;21.64;39.13
81905;BME280;71370;-33.792;151.032;2023-07-29T05:20:26;101366.09;;;21.62;39.45
81905;BME280;71370;-33.792;151.032;2023-07-29T05:21:33;101361.39;;;21.60;39.50
81905;BME280;71370;-33.792;151.032;2023-07-29T05:22:40;101359.70;;;21.57;39.59
81905;BME280;71370;-33.792;151.032;2023-07-29T05:23:47;101359.48;;;21.54;39.75
81905;BME280;71370;-33.792;151.032;2023-07-29T05:24:54;101357.82;;;21.52;39.89
81905;BME280;71370;-33.792;151.032;2023-07-29T05:26:01;101358.63;;;21.50;39.87
81905;BME280;71370;-33.792;151.032;2023-07-29T05:27:08;101357.83;;;21.48;39.87
81905;BME280;71370;-33.792;151.032;2023-07-29T05:28:15;101353.67;;;21.45;39.90
81905;BME280;71370;-33.792;151.032;2023-07-29T05:29:22;101357.86;;;21.43;39.92
81905;BME280;71370;-33.792;151.032;2023-07-29T05:30:30;101359.58;;;21.41;40.02
81905;BME280;71370;-33.792;151.032;2023-07-29T05:31:45;101359.17;;;21.38;39.94
81905;BME280;71370;-33.792;151.032;2023-07-29T05:32:52;101359.13;;;21.35;40.00
81905;BME280;71370;-33.792;151.032;2023-07-29T05:33:59;101355.27;;;21.34;40.03
81905;BME280;71370;-33.792;151.032;2023-07-29T05:35:07;101349.63;;;21.32;39.82
81905;BME280;71370;-33.792;151.032;2023-07-29T05:36:14;101346.45;;;21.31;39.65
81905;BME280;71370;-33.792;151.032;2023-07-29T05:37:21;101345.73;;;21.31;39.76
81905;BME280;71370;-33.792;151.032;2023-07-29T05:38:28;101348.61;;;21.31;40.33
81905;BME280;71370;-33.792;151.032;2023-07-29T05:39:35;101346.67;;;21.30;41.36
81905;BME280;71370;-33.792;151.032;2023-07-29T05:40:43;101343.33;;;21.29;41.36
81905;BME280;71370;-33.792;151.032;2023-07-29T05:41:50;101339.46;;;21.28;40.81
81905;BME280;71370;-33.792;151.032;2023-07-29T05:42:57;101337.71;;;21.27;40.65
81905;BME280;71370;-33.792;151.032;2023-07-29T05:44:04;101338.33;;;21.26;40.64
81905;BME280;71370;-33.792;151.032;2023-07-29T05:45:11;101336.45;;;21.24;41.00
81905;BME280;71370;-33.792;151.032;2023-07-29T05:46:18;101335.61;;;21.23;40.95
81905;BME280;71370;-33.792;151.032;2023-07-29T05:47:26;101333.91;;;21.21;40.90
81905;BME280;71370;-33.792;151.032;2023-07-29T05:48:32;101333.64;;;21.19;41.31
81905;BME280;71370;-33.792;151.032;2023-07-29T05:49:40;101331.08;;;21.16;41.34
81905;BME280;71370;-33.792;151.032;2023-07-29T05:50:47;101331.33;;;21.15;41.44